createdAt,value
2023-05-21T00:02:24.079Z,71.36
2023-05-21T00:04:56.201Z,71.47
2023-05-21T00:07:28.341Z,71.39
2023-05-21T00:10:00.619Z,71.88
2023-05-21T00:12:33.452Z,71.99
2023-05-21T00:15:05.811Z,71.82
2023-05-21T00:17:38.363Z,72.05
2023-05-21T00:20:10.756Z,71.77
2023-05-21T00:22:42.773Z,72.09
2023-05-21T00:25:16.729Z,71.96
2023-05-21T00:27:49.489Z,72.16
2023-05-21T00:30:21.569Z,72.43
2023-05-21T00:32:53.627Z,72.31
2023-05-21T00:35:29.542Z,72.26
2023-05-21T00:38:01.972Z,72.52
2023-05-21T00:40:37.431Z,72.83
2023-05-21T00:43:14.365Z,72.76
2023-05-21T00:45:48.796Z,72.65
2023-05-21T00:48:21.082Z,72.74
2023-05-21T00:50:53.460Z,72.85
2023-05-21T00:53:25.935Z,73.48
2023-05-21T00:55:58.097Z,73.49
2023-05-21T00:58:31.184Z,73.78
2023-05-21T01:01:04.020Z,73.67
2023-05-21T01:03:39.052Z,74.06
2023-05-21T01:06:16.188Z,74.46
2023-05-21T01:08:48.663Z,74.64
2023-05-21T01:11:22.496Z,74.64
2023-05-21T01:13:54.836Z,74.84
2023-05-21T01:16:26.906Z,74.73
2023-05-21T01:18:59.884Z,74.79
2023-05-21T01:21:37.628Z,74.67
2023-05-21T01:24:11.787Z,74.59
2023-05-21T01:26:44.475Z,74.84
2023-05-21T01:29:18.525Z,75.05
2023-05-21T01:31:55.663Z,75.37
2023-05-21T01:34:40.050Z,75.42
2023-05-21T01:37:30.216Z,75.26
2023-05-21T01:40:12.431Z,75.39
2023-05-21T01:42:47.687Z,75.33
2023-05-21T01:45:22.573Z,75.38
2023-05-21T01:47:56.873Z,75.70
2023-05-21T01:50:30.127Z,75.51
2023-05-21T01:53:03.984Z,75.14
2023-05-21T01:55:39.671Z,75.38
2023-05-21T01:58:12.145Z,75.48
2023-05-21T02:00:45.488Z,75.41
2023-05-21T02:03:19.667Z,75.35
2023-05-21T02:05:52.236Z,75.59
2023-05-21T02:08:25.739Z,75.60
2023-05-21T02:10:57.802Z,75.47
2023-05-21T02:13:30.868Z,75.76
2023-05-21T02:16:02.805Z,75.60
2023-05-21T02:18:36.597Z,75.64
2023-05-21T02:21:08.557Z,75.82
2023-05-21T02:23:42.407Z,76.07
2023-05-21T02:26:14.493Z,76.59
2023-05-21T02:28:46.560Z,76.70
2023-05-21T02:31:18.541Z,76.76
2023-05-21T02:33:51.061Z,77.11
2023-05-21T02:36:25.545Z,77.01
2023-05-21T02:38:57.955Z,77.18
2023-05-21T02:41:30.021Z,77.03
2023-05-21T02:44:02.079Z,76.92
2023-05-21T02:46:34.121Z,76.89
2023-05-21T02:49:06.460Z,77.09
2023-05-21T02:51:38.459Z,76.88
2023-05-21T02:54:13.447Z,76.96
2023-05-21T02:56:48.506Z,76.98
2023-05-21T02:59:20.566Z,76.83
2023-05-21T03:01:53.907Z,77.41
2023-05-21T03:04:28.399Z,77.67
2023-05-21T03:07:02.310Z,77.59
2023-05-21T03:09:34.334Z,77.36
2023-05-21T03:12:09.829Z,77.58
2023-05-21T03:14:46.629Z,77.94
2023-05-21T03:17:19.305Z,77.69
2023-05-21T03:19:52.279Z,77.85
2023-05-21T03:22:24.230Z,77.51
2023-05-21T03:24:56.558Z,77.71
2023-05-21T03:27:28.986Z,77.89
2023-05-21T03:30:01.362Z,78.11
2023-05-21T03:32:38.180Z,77.82
2023-05-21T03:35:11.299Z,77.71
2023-05-21T03:37:43.271Z,77.66
2023-05-21T03:40:18.122Z,77.99
2023-05-21T03:42:50.046Z,77.69
2023-05-21T03:45:22.403Z,77.73
2023-05-21T03:48:20.168Z,77.39
2023-05-21T03:50:52.342Z,77.52
2023-05-21T03:53:24.772Z,77.41
2023-05-21T03:55:56.889Z,77.40
2023-05-21T03:58:30.937Z,77.38
2023-05-21T04:01:05.023Z,77.50
2023-05-21T04:03:40.086Z,77.51
2023-05-21T04:06:13.447Z,77.14
2023-05-21T04:08:45.644Z,76.87
2023-05-21T04:11:17.922Z,76.91
2023-05-21T04:13:50.591Z,77.00
2023-05-21T04:16:24.726Z,76.77
2023-05-21T04:18:57.778Z,76.56
2023-05-21T04:21:32.559Z,76.17
2023-05-21T04:24:04.627Z,75.94
2023-05-21T04:26:56.236Z,75.61
2023-05-21T04:29:30.143Z,75.50
2023-05-21T04:32:02.679Z,74.84
2023-05-21T04:34:34.849Z,74.30
2023-05-21T04:37:07.142Z,73.78
2023-05-21T04:39:41.259Z,73.52
2023-05-21T04:42:14.270Z,73.20
2023-05-21T04:44:46.734Z,72.85
2023-05-21T04:47:19.567Z,72.36
2023-05-21T04:49:53.561Z,71.97
2023-05-21T04:52:27.081Z,71.53
2023-05-21T04:54:59.307Z,71.64
2023-05-21T04:57:31.536Z,71.78
2023-05-21T05:00:05.845Z,71.64
2023-05-21T05:02:43.496Z,70.91
2023-05-21T05:05:18.248Z,70.22
2023-05-21T05:07:50.144Z,69.66
2023-05-21T05:10:22.350Z,69.26
2023-05-21T05:12:55.181Z,68.48
2023-05-21T05:15:27.277Z,67.56
2023-05-21T05:17:59.697Z,67.05
2023-05-21T05:20:34.182Z,66.46
2023-05-21T05:23:06.322Z,65.18
2023-05-21T05:25:38.727Z,64.81
2023-05-21T05:28:10.980Z,64.50
2023-05-21T05:30:42.813Z,64.29
2023-05-21T05:33:24.662Z,63.58
2023-05-21T05:35:56.668Z,63.91
2023-05-21T05:38:28.794Z,63.69
2023-05-21T05:41:04.178Z,63.00
2023-05-21T05:43:36.620Z,62.23
2023-05-21T05:46:09.360Z,61.36
2023-05-21T05:48:41.762Z,60.40
2023-05-21T05:51:15.481Z,59.78
2023-05-21T05:53:48.204Z,59.43
2023-05-21T05:56:23.076Z,58.39
2023-05-21T05:58:55.303Z,57.52
2023-05-21T06:01:27.257Z,55.47
2023-05-21T06:03:59.580Z,55.86
2023-05-21T06:06:36.869Z,56.25
2023-05-21T06:09:08.851Z,55.90
2023-05-21T06:11:40.770Z,55.61
2023-05-21T06:14:15.616Z,53.42
2023-05-21T06:16:47.804Z,53.37
2023-05-21T06:19:22.779Z,53.31
2023-05-21T06:21:54.951Z,52.97
2023-05-21T06:24:27.212Z,51.71
2023-05-21T06:26:59.599Z,52.12
2023-05-21T06:29:31.859Z,51.17
2023-05-21T06:32:09.191Z,50.97
2023-05-21T06:34:41.482Z,51.15
2023-05-21T06:37:13.594Z,50.96
2023-05-21T06:39:46.104Z,51.04
2023-05-21T06:42:18.370Z,51.09
2023-05-21T06:45:19.708Z,49.82
2023-05-21T06:47:52.135Z,49.46
2023-05-21T06:50:24.176Z,49.08
2023-05-21T06:52:56.334Z,48.50
2023-05-21T06:55:28.361Z,48.52
2023-05-21T06:58:18.974Z,48.25
2023-05-21T07:00:52.239Z,47.87
2023-05-21T07:03:25.912Z,47.13
2023-05-21T07:05:58.909Z,47.31
2023-05-21T07:08:30.899Z,47.26
2023-05-21T07:11:04.284Z,47.35
2023-05-21T07:13:38.230Z,47.40
2023-05-21T07:16:14.041Z,46.73
2023-05-21T07:18:47.609Z,46.62
2023-05-21T07:21:20.154Z,46.84
2023-05-21T07:23:53.634Z,46.51
2023-05-21T07:26:26.705Z,46.02
2023-05-21T07:32:31.919Z,45.32
2023-05-21T07:35:09.686Z,44.78
2023-05-21T07:37:42.661Z,44.11
2023-05-21T07:40:15.162Z,44.27
2023-05-21T07:42:48.294Z,44.82
2023-05-21T07:45:24.297Z,43.91
2023-05-21T07:47:59.378Z,41.73
2023-05-21T07:50:32.847Z,43.21
2023-05-21T07:53:05.613Z,43.24
2023-05-21T07:55:38.559Z,43.16
2023-05-21T07:58:13.965Z,42.88
2023-05-21T08:00:47.963Z,42.99
2023-05-21T08:03:20.805Z,42.78
2023-05-21T08:05:54.678Z,42.53
2023-05-21T08:08:27.241Z,41.95
2023-05-21T08:11:01.856Z,41.28
2023-05-21T08:13:34.920Z,41.41
2023-05-21T08:16:08.779Z,41.71
2023-05-21T08:18:41.577Z,42.13
2023-05-21T08:21:13.526Z,41.29
2023-05-21T08:23:49.962Z,41.90
2023-05-21T08:26:22.011Z,41.65
2023-05-21T08:28:53.964Z,41.55
2023-05-21T08:31:26.428Z,41.21
2023-05-21T08:34:00.742Z,41.78
2023-05-21T08:36:50.168Z,43.37
2023-05-21T08:39:48.109Z,41.54
2023-05-21T08:42:45.608Z,41.56
2023-05-21T08:45:23.570Z,39.99
2023-05-21T08:47:57.600Z,40.29
2023-05-21T08:50:32.806Z,39.69
2023-05-21T08:53:19.883Z,41.44
2023-05-21T08:56:01.971Z,41.09
2023-05-21T08:58:53.050Z,41.23
2023-05-21T09:01:28.405Z,40.93
2023-05-21T09:06:52.069Z,40.03
2023-05-21T09:09:47.121Z,39.91
2023-05-21T09:12:19.665Z,40.66
2023-05-21T09:14:55.810Z,40.71
2023-05-21T09:17:33.600Z,41.16
2023-05-21T09:20:18.204Z,40.38
2023-05-21T09:23:05.436Z,39.31
2023-05-21T09:25:38.390Z,40.11
2023-05-21T09:28:16.626Z,39.69
2023-05-21T09:30:54.736Z,39.42
2023-05-21T09:33:29.849Z,38.14
2023-05-21T09:36:02.611Z,38.42
2023-05-21T09:38:37.994Z,38.22
2023-05-21T09:41:11.374Z,38.32
2023-05-21T09:43:45.082Z,38.35
2023-05-21T09:46:40.854Z,38.25
2023-05-21T09:49:25.038Z,39.08
2023-05-21T09:51:58.585Z,39.16
2023-05-21T09:54:35.034Z,38.24
2023-05-21T09:57:06.917Z,38.24
2023-05-21T09:59:39.765Z,37.39
2023-05-21T10:02:24.730Z,37.99
2023-05-21T10:04:57.507Z,37.29
2023-05-21T10:07:29.785Z,36.92
2023-05-21T10:10:14.804Z,37.74
2023-05-21T10:12:51.164Z,37.32
2023-05-21T10:15:25.131Z,37.07
2023-05-21T10:17:57.755Z,37.08
2023-05-21T10:20:30.049Z,35.92
2023-05-21T10:23:03.426Z,36.03
2023-05-21T10:26:03.868Z,35.33
2023-05-21T10:28:37.892Z,34.60
2023-05-21T10:31:10.733Z,35.52
2023-05-21T10:33:43.615Z,35.91
2023-05-21T10:36:18.966Z,35.13
2023-05-21T10:38:51.424Z,35.55
2023-05-21T10:41:26.882Z,35.56
2023-05-21T10:44:20.535Z,35.10
2023-05-21T10:47:18.709Z,34.68
2023-05-21T10:50:11.374Z,35.61
2023-05-21T10:52:57.346Z,35.86
2023-05-21T10:55:32.570Z,36.14
2023-05-21T10:58:29.903Z,35.12
2023-05-21T11:01:06.129Z,35.24
2023-05-21T11:03:38.344Z,35.77
2023-05-21T11:06:22.611Z,35.21
2023-05-21T11:08:55.704Z,35.32
2023-05-21T11:11:51.355Z,34.48
2023-05-21T11:14:37.020Z,34.83
2023-05-21T11:17:14.933Z,35.38
2023-05-21T11:19:51.535Z,35.57
2023-05-21T11:22:25.340Z,34.92
2023-05-21T11:25:01.984Z,35.24
2023-05-21T11:27:36.814Z,35.93
2023-05-21T11:30:10.805Z,36.24
2023-05-21T11:33:03.997Z,37.34
2023-05-21T11:35:55.439Z,37.42
2023-05-21T11:38:34.123Z,37.14
2023-05-21T11:41:05.993Z,37.02
2023-05-21T11:43:40.549Z,37.44
2023-05-21T11:46:12.636Z,37.54
2023-05-21T11:48:44.774Z,37.29
2023-05-21T11:51:16.691Z,37.00
2023-05-21T11:53:49.032Z,36.35
2023-05-21T11:56:20.913Z,36.43
2023-05-21T11:58:55.211Z,36.64
2023-05-21T12:01:28.080Z,33.63
2023-05-21T12:04:03.532Z,34.94
2023-05-21T12:06:35.386Z,35.71
2023-05-21T12:09:07.451Z,35.48
2023-05-21T12:11:41.984Z,35.78
2023-05-21T12:14:14.122Z,35.93
2023-05-21T12:16:46.573Z,36.52
2023-05-21T12:19:19.303Z,35.78
2023-05-21T12:21:53.210Z,35.74
2023-05-21T12:24:24.915Z,35.09
2023-05-21T12:27:01.965Z,34.41
2023-05-21T12:29:33.793Z,34.04
2023-05-21T12:32:07.578Z,34.58
2023-05-21T12:34:47.110Z,35.30
2023-05-21T12:37:23.231Z,35.58
2023-05-21T12:39:55.656Z,36.06
2023-05-21T12:42:31.694Z,35.76
2023-05-21T12:45:10.403Z,35.48
2023-05-21T12:47:48.244Z,34.73
2023-05-21T12:50:20.931Z,34.75
2023-05-21T12:52:56.495Z,34.18
2023-05-21T12:55:28.687Z,34.54
2023-05-21T12:58:09.314Z,33.55
2023-05-21T13:00:42.162Z,33.58
2023-05-21T13:03:16.729Z,32.44
2023-05-21T13:05:49.396Z,31.74
2023-05-21T13:08:21.274Z,32.13
2023-05-21T13:10:53.587Z,31.87
2023-05-21T13:13:25.543Z,29.86
2023-05-21T13:15:57.410Z,29.38
2023-05-21T13:18:29.744Z,29.25
2023-05-21T13:21:01.417Z,28.80
2023-05-21T13:23:33.268Z,28.82
2023-05-21T13:26:05.016Z,29.60
2023-05-21T13:28:36.910Z,29.37
2023-05-21T13:31:10.872Z,29.16
2023-05-21T13:33:44.832Z,28.81
2023-05-21T13:36:17.026Z,28.95
2023-05-21T13:38:51.144Z,29.00
2023-05-21T13:41:23.045Z,31.15
2023-05-21T13:43:55.073Z,31.76
2023-05-21T13:46:27.127Z,31.84
2023-05-21T13:48:58.955Z,32.48
2023-05-21T13:51:38.765Z,32.20
2023-05-21T13:54:11.407Z,32.39
2023-05-21T13:56:43.446Z,31.80
2023-05-21T13:59:16.844Z,31.58
2023-05-21T14:01:50.139Z,30.97
2023-05-21T14:04:24.914Z,30.62
2023-05-21T14:06:57.223Z,28.34
2023-05-21T14:09:29.640Z,28.87
2023-05-21T14:12:06.596Z,28.56
2023-05-21T14:14:40.566Z,27.99
2023-05-21T14:17:13.519Z,28.70
2023-05-21T14:19:45.471Z,28.18
2023-05-21T14:22:19.821Z,28.54
2023-05-21T14:24:52.806Z,29.43
2023-05-21T14:27:24.884Z,29.50
2023-05-21T14:29:56.704Z,29.82
2023-05-21T14:32:28.599Z,29.73
2023-05-21T14:35:00.681Z,29.44
2023-05-21T14:37:32.413Z,29.54
2023-05-21T14:40:07.744Z,29.58
2023-05-21T14:42:39.741Z,29.35
2023-05-21T14:45:19.150Z,29.26
2023-05-21T14:47:51.210Z,29.37
2023-05-21T14:50:23.376Z,29.25
2023-05-21T14:52:55.670Z,28.98
2023-05-21T14:55:30.963Z,29.07
2023-05-21T14:58:08.578Z,28.58
2023-05-21T15:00:40.500Z,28.45
2023-05-21T15:06:12.345Z,28.35
2023-05-21T15:08:43.915Z,28.20
2023-05-21T15:11:15.647Z,28.57
2023-05-21T15:13:47.293Z,27.91
2023-05-21T15:16:19.815Z,28.42
2023-05-21T15:18:52.074Z,28.17
2023-05-21T15:21:27.952Z,28.12
2023-05-21T15:23:59.874Z,27.23
2023-05-21T15:26:31.506Z,27.18
2023-05-21T15:29:03.986Z,26.86
2023-05-21T15:31:35.697Z,27.33
2023-05-21T15:34:07.462Z,27.49
2023-05-21T15:36:42.281Z,27.33
2023-05-21T15:39:15.225Z,27.28
2023-05-21T15:41:47.001Z,27.48
2023-05-21T15:44:20.972Z,27.48
2023-05-21T15:46:54.847Z,27.24
2023-05-21T15:49:26.498Z,27.52
2023-05-21T15:52:00.329Z,28.17
2023-05-21T15:54:31.997Z,28.02
2023-05-21T15:57:03.672Z,28.47
2023-05-21T15:59:35.333Z,28.04
2023-05-21T16:02:07.509Z,27.78
2023-05-21T16:04:39.193Z,28.14
2023-05-21T16:07:12.069Z,28.01
2023-05-21T16:09:44.569Z,28.05
2023-05-21T16:12:16.411Z,27.92
2023-05-21T16:14:49.924Z,28.16
2023-05-21T16:17:21.713Z,28.77
2023-05-21T16:19:53.606Z,28.79
2023-05-21T16:22:25.341Z,28.91
2023-05-21T16:24:56.979Z,29.17
2023-05-21T16:27:28.561Z,29.15
2023-05-21T16:30:00.356Z,29.46
2023-05-21T16:32:31.987Z,29.60
2023-05-21T16:35:03.902Z,29.22
2023-05-21T16:37:35.628Z,29.16
2023-05-21T16:40:07.569Z,28.82
2023-05-21T16:42:39.968Z,28.93
2023-05-21T16:45:22.346Z,28.90
2023-05-21T16:47:54.106Z,28.99
2023-05-21T16:50:26.586Z,29.36
2023-05-21T16:53:02.258Z,29.59
2023-05-21T16:55:34.798Z,29.87
2023-05-21T16:58:07.161Z,29.99
2023-05-21T17:00:39.165Z,30.34
2023-05-21T17:03:11.904Z,31.02
2023-05-21T17:05:43.639Z,33.32
2023-05-21T17:08:15.248Z,35.17
2023-05-21T17:10:46.905Z,36.23
2023-05-21T17:13:22.826Z,37.15
2023-05-21T17:15:54.951Z,37.32
2023-05-21T17:18:26.567Z,38.06
2023-05-21T17:20:59.111Z,38.33
2023-05-21T17:23:30.822Z,39.56
2023-05-21T17:26:02.448Z,39.89
2023-05-21T17:28:34.040Z,40.46
2023-05-21T17:31:06.901Z,41.22
2023-05-21T17:33:39.137Z,41.33
2023-05-21T17:36:10.742Z,40.98
2023-05-21T17:38:42.760Z,41.47
2023-05-21T17:41:16.377Z,41.60
2023-05-21T17:43:48.001Z,41.93
2023-05-21T17:46:19.681Z,41.83
2023-05-21T17:48:51.364Z,41.78
2023-05-21T17:51:23.017Z,42.19
2023-05-21T17:53:54.688Z,42.87
2023-05-21T17:56:27.405Z,42.80
2023-05-21T17:58:59.014Z,42.88
2023-05-21T18:01:31.043Z,43.02
2023-05-21T18:04:03.669Z,42.85
2023-05-21T18:06:35.483Z,42.90
2023-05-21T18:09:08.007Z,42.96
2023-05-21T18:11:39.722Z,42.84
2023-05-21T18:14:11.363Z,43.08
2023-05-21T18:16:43.090Z,43.57
2023-05-21T18:19:14.813Z,43.56
2023-05-21T18:21:47.492Z,44.08
2023-05-21T18:24:19.132Z,43.41
2023-05-21T18:26:50.703Z,44.27
2023-05-21T18:29:22.255Z,44.10
2023-05-21T18:31:54.092Z,44.31
2023-05-21T18:34:25.796Z,44.70
2023-05-21T18:36:58.809Z,45.10
2023-05-21T18:39:30.776Z,45.42
2023-05-21T18:42:13.045Z,45.53
2023-05-21T18:44:46.508Z,45.24
2023-05-21T18:47:18.290Z,45.97
2023-05-21T18:49:49.910Z,46.35
2023-05-21T18:52:21.579Z,45.70
2023-05-21T18:54:53.993Z,46.18
2023-05-21T18:57:25.758Z,46.14
2023-05-21T18:59:59.550Z,46.55
2023-05-21T19:02:31.921Z,46.46
2023-05-21T19:05:03.676Z,46.65
2023-05-21T19:07:36.234Z,47.03
2023-05-21T19:10:08.060Z,46.95
2023-05-21T19:12:41.889Z,47.06
2023-05-21T19:15:13.648Z,46.97
2023-05-21T19:17:45.249Z,47.34
2023-05-21T19:20:24.029Z,47.13
2023-05-21T19:22:57.130Z,47.54
2023-05-21T19:25:31.813Z,47.79
2023-05-21T19:28:03.427Z,48.14
2023-05-21T19:30:36.486Z,47.61
2023-05-21T19:33:08.432Z,47.62
2023-05-21T19:35:43.170Z,47.99
2023-05-21T19:38:14.952Z,48.00
2023-05-21T19:40:46.686Z,48.28
2023-05-21T19:43:18.267Z,48.42
2023-05-21T19:45:50.090Z,48.72
2023-05-21T19:48:21.820Z,48.59
2023-05-21T19:50:53.490Z,49.32
2023-05-21T19:53:25.063Z,49.01
2023-05-21T19:55:56.994Z,49.75
2023-05-21T19:58:30.476Z,49.64
2023-05-21T20:01:03.446Z,49.83
2023-05-21T20:03:38.241Z,50.41
2023-05-21T20:06:09.915Z,50.68
2023-05-21T20:08:42.024Z,51.07
2023-05-21T20:11:13.720Z,50.68
2023-05-21T20:13:52.348Z,51.25
2023-05-21T20:16:24.350Z,51.08
2023-05-21T20:18:58.328Z,51.53
2023-05-21T20:21:31.552Z,51.52
2023-05-21T20:24:03.568Z,51.32
2023-05-21T20:26:36.531Z,51.77
2023-05-21T20:29:08.350Z,52.11
2023-05-21T20:31:40.077Z,52.54
2023-05-21T20:34:12.402Z,52.65
2023-05-21T20:36:44.127Z,52.29
2023-05-21T20:39:15.894Z,52.20
2023-05-21T20:41:47.834Z,52.89
2023-05-21T20:44:21.311Z,52.99
2023-05-21T20:46:54.082Z,53.07
2023-05-21T20:49:25.920Z,52.96
2023-05-21T20:51:57.593Z,53.43
2023-05-21T20:54:30.809Z,53.30
2023-05-21T20:57:04.360Z,53.03
2023-05-21T20:59:36.013Z,53.69
2023-05-21T21:02:10.929Z,54.18
2023-05-21T21:04:42.609Z,53.61
2023-05-21T21:07:15.465Z,53.79
2023-05-21T21:09:47.351Z,54.34
2023-05-21T21:12:25.246Z,54.24
2023-05-21T21:14:58.373Z,54.70
2023-05-21T21:17:30.036Z,54.70
2023-05-21T21:20:01.674Z,54.64
2023-05-21T21:22:33.619Z,55.13
2023-05-21T21:25:05.548Z,55.00
2023-05-21T21:27:37.236Z,55.27
2023-05-21T21:30:09.105Z,55.11
2023-05-21T21:32:41.224Z,55.50
2023-05-21T21:35:12.968Z,55.85
2023-05-21T21:37:44.625Z,55.92
2023-05-21T21:40:16.455Z,55.83
2023-05-21T21:42:51.185Z,55.78
2023-05-21T21:45:22.796Z,56.42
2023-05-21T21:47:54.483Z,56.52
2023-05-21T21:50:26.092Z,56.32
2023-05-21T21:52:57.998Z,56.23
2023-05-21T21:55:29.736Z,55.90
2023-05-21T21:58:01.409Z,56.78
2023-05-21T22:00:32.992Z,56.34
2023-05-21T22:03:04.699Z,56.73
2023-05-21T22:05:36.365Z,57.05
2023-05-21T22:08:08.057Z,56.93
2023-05-21T22:10:39.881Z,57.15
2023-05-21T22:13:12.895Z,57.04
2023-05-21T22:15:44.545Z,57.45
2023-05-21T22:18:31.966Z,57.73
2023-05-21T22:21:14.319Z,57.63
2023-05-21T22:23:46.378Z,57.92
2023-05-21T22:26:17.942Z,57.92
2023-05-21T22:28:50.036Z,58.37
2023-05-21T22:31:21.746Z,58.52
2023-05-21T22:33:53.381Z,58.75
2023-05-21T22:36:24.945Z,59.30
2023-05-21T22:38:56.644Z,58.99
2023-05-21T22:41:28.221Z,59.35
2023-05-21T22:44:00.071Z,59.13
2023-05-21T22:46:32.097Z,59.24
2023-05-21T22:49:04.672Z,59.64
2023-05-21T22:51:39.358Z,59.93
2023-05-21T22:54:11.047Z,60.00
2023-05-21T22:56:43.221Z,60.33
2023-05-21T22:59:15.073Z,60.91
2023-05-21T23:01:46.706Z,60.61
2023-05-21T23:04:20.697Z,60.69
2023-05-21T23:06:58.310Z,61.11
2023-05-21T23:09:29.963Z,60.99
2023-05-21T23:12:01.534Z,61.77
2023-05-21T23:14:33.391Z,61.63
2023-05-21T23:17:05.748Z,61.31
2023-05-21T23:19:37.639Z,61.89
2023-05-21T23:22:09.407Z,61.83
2023-05-21T23:24:41.173Z,62.46
2023-05-21T23:27:12.810Z,62.37
2023-05-21T23:29:44.383Z,62.27
2023-05-21T23:32:16.026Z,62.43
2023-05-21T23:34:48.371Z,62.74
2023-05-21T23:37:20.096Z,62.82
2023-05-21T23:39:52.008Z,62.78
2023-05-21T23:42:23.658Z,62.90
2023-05-21T23:44:55.415Z,63.61
2023-05-21T23:47:27.001Z,63.39
2023-05-21T23:49:58.748Z,63.67
2023-05-21T23:52:30.519Z,63.99
2023-05-21T23:55:02.182Z,64.28
2023-05-21T23:57:33.716Z,64.45
